• Join FlightAware (Why Join?)
  • Login
  • US Flag 
Trick or treat! (Boo!!) 
04:32AM EDT


 

Airport Tracker/Info


-or-


 

Live Flight TrackerFlight Track Log ✈ TGW437 ✈ 01-Oct-2013 ✈ YBAS / ASP - YMML / MEL

Flight Track Log - Related Links

Times and Time Zones

All times are in EDT time to prevent confusion due to time zone crossing. See the TGW437 flight status page for this flight to view local times or setup timezone preferences in your user account.

Time Position Orientation Groundspeed Altitude Reporting Facility
EDT Latitude Longitude Course Direction KTS MPH feet Rate Location/Type
11:06PM -23.8040 133.8980 90° East 88 101  Level FlightAware
11:07PM -23.8120 133.9140 119° Southeast 161 185 2,000 4,080 Climbing FlightAware
11:07PM -23.7927 133.8782 122° Southeast 31,600 3,000 Climbing Aus ATC (Calculated)
11:07PM -23.8190 133.9240 127° Southeast 154 177 2,800 -107,280 Descending FlightAware
11:07PM -23.8220 133.9260 127° Southeast 152 175 3,000 2,580 Climbing FlightAware
11:07PM -23.8290 133.9280 165° South 150 173 3,500 1,380 Climbing FlightAware
11:08PM -23.8653 133.9234 16° North 31,600 900 Climbing Aus ATC (Calculated)
11:08PM -23.8540 133.9270 165° South 186 214 4,000 -65,520 Descending FlightAware
11:08PM -23.8740 133.9350 160° South 220 253 4,300 1,020 Climbing FlightAware
11:08PM -23.8970 133.9490 151° Southeast 257 296 4,800 1,860 Climbing FlightAware
11:09PM -23.9200 133.9630 151° Southeast 270 311 5,700 2,340 Climbing FlightAware
11:09PM -23.9430 133.9770 151° Southeast 291 335 6,400 1,920 Climbing FlightAware
11:09PM -23.9670 133.9910 152° Southeast 306 352 7,000 1,500 Climbing FlightAware
11:09PM -24.0830 134.0593 332° Northwest 31,600 1,200 Climbing Aus ATC (Calculated)
11:10PM -23.9980 134.0100 151° Southeast 338 389 7,500 -36,840 Descending FlightAware
11:10PM -24.0260 134.0270 151° Southeast 348 400 8,300 2,340 Climbing FlightAware
11:10PM -24.0510 134.0430 151° Southeast 356 410 9,000 2,280 Climbing FlightAware
11:11PM -24.1556 134.1047 333° Northwest 31,600 2,280 Climbing Aus ATC (Calculated)
11:11PM -24.1050 134.0770 151° Southeast 371 427 10,400 -18,780 Descending FlightAware
11:11PM -24.2281 134.1502 332° Northwest 31,600 2,520 Climbing Aus ATC (Calculated)
11:12PM -24.1560 134.1090 150° Southeast 376 433 11,900 -19,860 Descending FlightAware
11:12PM -24.3006 134.1957 332° Northwest 31,600 2,340 Climbing Aus ATC (Calculated)
11:12PM -24.2170 134.1460 150° Southeast 389 448 13,400 -26,700 Descending FlightAware
11:13PM -24.2670 134.1780 150° Southeast 392 451 14,700 2,340 Climbing FlightAware
11:13PM -24.3230 134.2120 151° Southeast 395 455 16,100 2,520 Climbing FlightAware
11:14PM -24.3810 134.2490 150° Southeast 391 450 17,800 2,160 Climbing FlightAware
11:14PM -24.4320 134.2810 150° Southeast 403 464 18,600 1,560 Climbing FlightAware
11:15PM -24.5906 134.3782 331° Northwest 31,600 1,620 Climbing Aus ATC (Calculated)
11:15PM -24.4930 134.3190 150° Southeast 416 479 19,600 -9,600 Descending FlightAware
11:15PM -24.6630 134.4240 331° Northwest 31,600 1,620 Climbing Aus ATC (Calculated)
11:16PM -24.5490 134.3540 150° Southeast 421 484 20,600 -10,680 Descending FlightAware
11:16PM -24.6110 134.3920 150° Southeast 428 493 21,500 1,440 Climbing FlightAware
11:17PM -24.6730 134.4310 150° Southeast 438 504 22,300 1,500 Climbing FlightAware
11:17PM -24.8079 134.5156 330° Northwest 31,600 1,620 Climbing Aus ATC (Calculated)
11:17PM -24.7380 134.4720 150° Southeast 442 509 23,300 -7,260 Descending FlightAware
11:17PM -24.8803 134.5616 330° Northwest 31,600 1,320 Climbing Aus ATC (Calculated)
11:18PM -24.8010 134.5120 150° Southeast 448 516 24,100 -6,000 Descending FlightAware
11:19PM -24.8600 134.5490 150° Southeast 454 522 24,800 1,320 Climbing FlightAware
11:19PM -24.9270 134.5910 150° Southeast 461 531 25,600 1,080 Climbing FlightAware
11:19PM -25.0610 134.6767 330° Northwest 35,000 840 Climbing Aus ATC (Calculated)
11:20PM -24.9910 134.6320 150° Southeast 470 541 26,100 -8,220 Descending FlightAware
11:20PM -25.0660 134.6800 150° Southeast 471 542 27,200 1,920 Climbing FlightAware
11:21PM -25.1250 134.7180 150° Southeast 459 528 28,400 1,500 Climbing FlightAware
11:21PM -25.2777 134.8154 330° Northwest 35,000 780 Climbing Aus ATC (Calculated)
11:22PM -25.1940 134.7620 150° Southeast 470 541 28,900 -6,240 Descending FlightAware
11:22PM -25.2540 134.8000 150° Southeast 475 547 29,500 1,200 Climbing FlightAware
11:23PM -25.3230 134.8440 150° Southeast 475 547 30,300 1,320 Climbing FlightAware
11:23PM -25.3950 134.8910 149° Southeast 471 542 31,200 1,440 Climbing FlightAware
11:24PM -25.4550 134.9290 150° Southeast 467 537 32,000 1,500 Climbing FlightAware
11:24PM -25.5484 134.9896 330° Northwest 35,000 1,500 Climbing Aus ATC (Calculated)
11:24PM -25.5230 134.9730 150° Southeast 461 531 32,900 -1,620 Descending FlightAware
11:25PM -25.5920 135.0170 150° Southeast 471 542 33,100 300 Climbing FlightAware
11:26PM -25.6500 135.0550 149° Southeast 477 549 33,300 780 Climbing FlightAware
11:26PM -25.7190 135.1000 150° Southeast 474 545 34,000 900 Climbing FlightAware
11:27PM -25.7860 135.1430 150° Southeast 477 549 34,400 720 Climbing FlightAware
11:27PM -25.9269 135.2346 330° Northwest 35,000 780 Climbing Aus ATC (Calculated)
11:27PM -25.8540 135.1870 150° Southeast 476 548 34,900  Descending FlightAware
11:28PM -25.9160 135.2280 149° Southeast 471 542 35,000 60 Climbing FlightAware
11:28PM -25.9840 135.2720 150° Southeast 475 547 35,000  Level FlightAware
11:29PM -26.0490 135.3140 150° Southeast 477 549 35,000  Level FlightAware
11:30PM -26.2510 135.4459 330° Northwest 35,000  Level Aus ATC (Calculated)
11:30PM -26.1310 135.3680 150° Southeast 476 548 35,000  Level FlightAware
11:30PM -26.1990 135.4120 150° Southeast 475 547 35,000  Level FlightAware
11:31PM -26.2650 135.4550 150° Southeast 476 548 35,000  Level FlightAware
11:31PM -26.3220 135.4930 149° Southeast 476 548 35,000  Level FlightAware
11:32PM -26.4669 135.5875 330° Northwest 35,000  Level Aus ATC (Calculated)
11:32PM -26.4020 135.5450 149° Southeast 476 548 35,000  Level FlightAware
11:33PM -26.4670 135.5870 150° Southeast 475 547 35,000  Level FlightAware
11:33PM -26.5200 135.6220 149° Southeast 476 548 35,000  Level FlightAware
11:34PM -26.5970 135.6730 149° Southeast 476 548 35,000  Level FlightAware
11:34PM -26.6650 135.7180 149° Southeast 476 548 35,000  Level FlightAware
11:35PM -26.8272 135.8250 330° Northwest 35,000  Level Aus ATC (Calculated)
11:35PM -26.7330 135.7630 149° Southeast 477 549 35,000  Level FlightAware
11:36PM -26.7990 135.8060 150° Southeast 479 551 35,000  Level FlightAware
11:36PM -26.8600 135.8470 149° Southeast 479 551 35,000  Level FlightAware
11:37PM -26.9200 135.8880 149° Southeast 479 551 35,000  Level FlightAware
11:37PM -26.9780 135.9270 149° Southeast 479 551 35,000  Level FlightAware
11:38PM -27.0370 135.9670 149° Southeast 479 551 35,000  Level FlightAware
11:39PM -27.0970 136.0070 149° Southeast 479 551 35,000  Level FlightAware
11:39PM -27.1550 136.0470 148° Southeast 479 551 35,000  Level FlightAware
11:40PM -27.3563 136.1772 330° Northwest 35,000  Level Aus ATC (Calculated)
11:40PM -27.2130 136.0860 148° Southeast 479 551 35,000  Level FlightAware
11:41PM -27.2730 136.1260 149° Southeast 479 551 35,000  Level FlightAware
11:41PM -27.3310 136.1660 149° Southeast 479 551 35,000  Level FlightAware
11:42PM -27.3890 136.2050 149° Southeast 479 551 35,000  Level FlightAware
11:42PM -27.4480 136.2440 150° Southeast 479 551 35,000  Level FlightAware
11:43PM -27.5060 136.2840 149° Southeast 479 551 35,000  Level FlightAware
11:44PM -27.5650 136.3240 149° Southeast 479 551 35,000  Level FlightAware
11:44PM -27.6240 136.3640 149° Southeast 479 551 35,000  Level FlightAware
11:45PM -27.8846 136.5327 330° Northwest 35,000  Level Aus ATC (Calculated)
11:45PM -27.6820 136.4030 149° Southeast 479 551 35,000  Level FlightAware
11:45PM -27.7400 136.4420 149° Southeast 479 551 35,000  Level FlightAware
11:46PM -27.7950 136.4800 149° Southeast 479 551 35,000  Level FlightAware
11:47PM -27.8530 136.5190 149° Southeast 479 551 35,000  Level FlightAware
11:47PM -27.9110 136.5590 149° Southeast 479 551 35,000  Level FlightAware
11:48PM -27.9690 136.5980 149° Southeast 479 551 35,000  Level FlightAware
11:48PM -28.2949 136.8121 330° Northwest 35,000  Level Aus ATC (Calculated)
11:48PM -28.0290 136.6390 149° Southeast 479 551 35,000  Level FlightAware
11:49PM -28.0870 136.6780 149° Southeast 479 551 35,000  Level FlightAware
11:50PM -28.1450 136.7180 149° Southeast 479 551 35,000  Level FlightAware
11:50PM -28.2030 136.7580 149° Southeast 479 551 35,000  Level FlightAware
11:51PM -28.6681 137.0701 147° Southeast 35,000  Level Aus ATC (Calculated)
11:53PM -28.8051 137.1747 149° Southeast  Level Estimated
11:53PM -28.8918 137.2258 147° Southeast 35,000  Level Aus ATC (Calculated)
11:54PM -28.9189 137.2535 149° Southeast  Level FlightAware Approximate
11:55PM -29.0508 137.3369 149° Southeast  Level FlightAware Approximate
11:55PM -29.1153 137.3821 147° Southeast 35,000  Level Aus ATC (Calculated)
11:57PM -29.2722 137.4924 149° Southeast  Level FlightAware Approximate
11:58PM -29.3856 137.5723 148° Southeast  Level FlightAware Approximate
11:58PM -29.4130 137.5916 147° Southeast 35,000  Level Aus ATC (Calculated)
11:59PM -29.4990 137.6524 148° Southeast  Level FlightAware Approximate
12:00AM -29.5811 137.7105 148° Southeast  Level FlightAware Approximate
12:01AM -29.6944 137.7909 148° Southeast  Level FlightAware Approximate
12:01AM -29.7847 137.8552 146° Southeast 35,000  Level Aus ATC (Calculated)
12:03AM -29.9506 137.9736 148° Southeast  Level FlightAware Approximate
12:03AM -30.0074 138.0143 145° Southeast 35,000  Level Aus ATC (Calculated)
12:05AM -30.1845 138.1414 148° Southeast  Level FlightAware Approximate
12:06AM -30.2975 138.2228 148° Southeast  Level FlightAware Approximate
12:07AM -30.4104 138.3043 148° Southeast  Level FlightAware Approximate
12:08AM -30.5233 138.3861 148° Southeast  Level FlightAware Approximate
12:08AM -30.5262 138.3882 141° Southeast 35,000  Level Aus ATC (Calculated)
12:10AM -30.7049 138.5181 148° Southeast  Level FlightAware Approximate
12:10AM -30.7395 138.5848 140° Southeast 35,000  Level Aus ATC (Calculated)
12:11AM -30.8091 138.6564 141° Southeast 35,000 360 Level Aus ATC (Calculated)
12:13AM -30.9053 138.7457 148° Southeast 454 522 36,100 360 Climbing Aus ATC (RADAR)
12:13AM -30.9890 138.8349 138° Southeast 476 548 36,100  Level Aus ATC (RADAR)
12:14AM -31.0143 138.8638 136° Southeast 485 558 36,100  Level Aus ATC (RADAR)
12:14AM -31.0733 138.9237 139° Southeast 487 560 36,100  Level Aus ATC (RADAR)
12:15AM -31.1922 139.0506 138° Southeast 495 570 36,100  Level Aus ATC (RADAR)
12:16AM -31.2432 139.1006 140° Southeast 491 565 36,100  Level Aus ATC (RADAR)
12:16AM -31.3030 139.1633 138° Southeast 493 567 36,100 60 Level Aus ATC (RADAR)
12:17AM -31.3720 139.2347 139° Southeast 496 571 36,200  Climbing Aus ATC (RADAR)
12:18AM -31.4318 139.2965 139° Southeast 495 570 36,100 -120 Descending Aus ATC (RADAR)
12:19AM -31.5172 139.3858 138° Southeast 495 570 36,100  Level Aus ATC (RADAR)
12:19AM -31.5602 139.4328 137° Southeast 499 574 36,100  Level Aus ATC (RADAR)
12:20AM -31.6631 139.5415 138° Southeast 501 577 36,100  Level Aus ATC (RADAR)
12:20AM -31.7139 139.5958 138° Southeast 498 573 36,100  Level Aus ATC (RADAR)
12:21AM -31.7570 139.6412 138° Southeast 499 574 36,100  Level Aus ATC (RADAR)
12:21AM -31.8167 139.7044 138° Southeast 499 574 36,100  Level Aus ATC (RADAR)
12:22AM -31.8853 139.7797 137° Southeast 503 579 36,100  Level Aus ATC (RADAR)
12:23AM -31.9534 139.8505 139° Southeast 499 574 36,100  Level Aus ATC (RADAR)
12:23AM -32.0137 139.9146 138° Southeast 502 578 36,100 -120 Level Aus ATC (RADAR)
12:24AM -32.0829 139.9892 138° Southeast 506 582 36,000  Descending Aus ATC (RADAR)
12:25AM -32.1774 140.0904 138° Southeast 505 581 36,100  Climbing Aus ATC (RADAR)
12:25AM -32.2110 140.1250 138° Southeast 505 581 36,000 -120 Descending FlightAware
12:26AM -32.2590 140.1780 137° Southeast 505 581 36,000  Level FlightAware
12:27AM -32.3500 140.2750 138° Southeast 505 581 36,000  Level FlightAware
12:27AM -32.4010 140.3310 137° Southeast 505 581 36,000  Level FlightAware
12:28AM -32.4608 140.3958 137° Southeast 499 574 36,000  Level Aus ATC (RADAR)
12:28AM -32.4710 140.4060 137° Southeast 503 579 36,000  Level FlightAware
12:28AM -32.5080 140.4470 137° Southeast 502 578 36,000  Level FlightAware
12:29AM -32.5730 140.5170 138° Southeast 503 579 36,000  Level FlightAware
12:30AM -32.6420 140.5930 137° Southeast 505 581 36,000  Level FlightAware
12:30AM -32.6940 140.6500 137° Southeast 503 579 36,000  Level FlightAware
12:31AM -32.7540 140.7150 137° Southeast 503 579 36,000  Level FlightAware
12:31AM -32.7602 140.7231 137° Southeast 503 579 36,000  Level Aus ATC (RADAR)
12:31AM -32.7951 140.7601 137° Southeast 502 578 36,000  Level FlightAware ADS-B (YPAD / ADL)
12:32AM -32.8540 140.8249 137° Southeast 501 577 36,000  Level FlightAware ADS-B (YPAD / ADL)
12:32AM -32.9350 140.9140 137° Southeast 501 577 36,000  Level FlightAware
12:32AM -32.9473 140.9277 137° Southeast 500 575 36,000  Level Aus ATC (RADAR)
12:33AM -32.9960 140.9810 137° Southeast 502 578 36,000  Level FlightAware
12:33AM -32.9964 140.9813 148° Southeast 502 578 36,000  Level FlightAware ADS-B (YPAD / ADL)
12:34AM -33.0915 141.0870 148° Southeast 500 575 36,000  Level Aus ATC (RADAR)
12:34AM -33.1051 141.1016 148° Southeast 502 578 36,000  Level FlightAware ADS-B (YPAD / ADL)
12:35AM -33.1730 141.1780 148° Southeast 500 575 36,000 120 Level FlightAware
12:35AM -33.1754 141.1804 148° Southeast 498 573 36,100 120 Climbing Aus ATC (RADAR)
12:35AM -33.2320 141.2430 137° Southeast 498 573 36,100 -120 Level FlightAware
12:36AM -33.2934 141.3118 137° Southeast 494 568 36,000 -180 Descending Aus ATC (RADAR)
12:36AM -33.2910 141.3090 137° Southeast 495 570 36,000  Level FlightAware
12:37AM -33.3570 141.3820 137° Southeast 488 562 36,000  Level FlightAware
12:37AM -33.4180 141.4500 137° Southeast 494 568 36,000  Level FlightAware
12:38AM -33.4775 141.5171 137° Southeast 494 568 36,000  Level Aus ATC (RADAR)
12:38AM -33.4700 141.5080 137° Southeast 495 570 36,000  Level FlightAware
12:38AM -33.5364 141.5831 137° Southeast 497 572 36,000  Level Aus ATC (RADAR)
12:38AM -33.5390 141.5860 137° Southeast 490 564 36,000  Level FlightAware
12:39AM -33.6060 141.6610 137° Southeast 491 565 36,000 60 Level FlightAware
12:40AM -33.6603 141.7234 137° Southeast 492 566 36,100  Climbing Aus ATC (RADAR)
12:40AM -33.6690 141.7330 137° Southeast 473 544 36,000 -120 Descending FlightAware
12:40AM -33.7420 141.8160 137° Southeast 456 525 36,000  Level FlightAware
12:41AM -33.7960 141.8760 137° Southeast 462 532 36,000  Level FlightAware
12:42AM -33.8510 141.9380 137° Southeast 468 539 36,000  Level FlightAware
12:42AM -33.9170 142.0130 137° Southeast 466 536 36,000  Level FlightAware
12:43AM -33.9690 142.0720 137° Southeast 465 535 36,000  Level FlightAware
12:43AM -34.0240 142.1350 136° Southeast 467 537 36,000 60 Level FlightAware
12:44AM -34.0806 142.2005 136° Southeast 464 534 36,100 120 Climbing Aus ATC (RADAR)
12:44AM -34.0770 142.1960 136° Southeast 468 539 36,100  Level FlightAware
12:45AM -34.1330 142.2600 137° Southeast 468 539 36,100  Level FlightAware
12:45AM -34.1880 142.3230 137° Southeast 468 539 36,100  Level FlightAware
12:46AM -34.2500 142.3950 136° Southeast 466 536 36,100 -120 Level FlightAware
12:46AM -34.3030 142.4560 136° Southeast 465 535 36,000 -120 Descending FlightAware
12:47AM -34.3607 142.5233 136° Southeast 459 528 36,000  Level Aus ATC (RADAR)
12:47AM -34.3690 142.5320 136° Southeast 453 521 36,000  Level FlightAware
12:48AM -34.4240 142.5950 137° Southeast 450 518 36,000  Level FlightAware
12:48AM -34.4760 142.6560 136° Southeast 451 519 36,000  Level FlightAware
12:49AM -34.5220 142.7090 136° Southeast 454 522 36,000  Level FlightAware
12:49AM -34.5288 142.7173 136° Southeast 455 524 36,000  Level Aus ATC (RADAR)
12:49AM -34.5840 142.7820 136° Southeast 456 525 36,000  Level FlightAware
12:50AM -34.6370 142.8430 137° Southeast 456 525 36,000  Level FlightAware
12:51AM -34.6900 142.9059 137° Southeast 458 527 36,000  Level Aus ATC (RADAR)
12:51AM -34.7000 142.9160 137° Southeast 456 525 36,000  Level FlightAware
12:51AM -34.7540 142.9800 136° Southeast 456 525 36,000  Level FlightAware
12:52AM -34.8070 143.0420 136° Southeast 457 526 36,000  Level FlightAware
12:52AM -34.8600 143.1050 136° Southeast 458 527 36,000  Level FlightAware
12:53AM -34.9150 143.1690 136° Southeast 458 527 36,000  Level FlightAware
12:54AM -34.9710 143.2300 138° Southeast 455 524 36,000  Level FlightAware
12:54AM -35.0330 143.2810 138° Southeast 456 525 36,000  Level FlightAware
12:54AM -35.0390 143.2867 138° Southeast 456 525 36,000  Level Aus ATC (RADAR)
12:55AM -35.0960 143.3280 149° Southeast 456 525 36,000  Level FlightAware
12:55AM -35.1580 143.3750 148° Southeast 455 524 36,000  Level FlightAware
12:56AM -35.2220 143.4240 148° Southeast 454 522 36,000  Level FlightAware
12:57AM -35.2820 143.4690 149° Southeast 455 524 36,000  Level FlightAware
12:57AM -35.3470 143.5180 148° Southeast 452 520 36,000  Level FlightAware
12:58AM -35.4070 143.5640 148° Southeast 453 521 36,000  Level FlightAware
12:58AM -35.4720 143.6130 148° Southeast 452 520 36,000 -180 Level FlightAware
12:59AM -35.5310 143.6590 148° Southeast 454 522 35,800 -720 Descending FlightAware
12:59AM -35.5950 143.7080 148° Southeast 440 506 35,200 -960 Descending FlightAware
01:00AM -35.6540 143.7530 148° Southeast 436 502 34,700 -960 Descending FlightAware
01:01AM -35.7170 143.8010 148° Southeast 441 507 34,100 -1,140 Descending FlightAware
01:01AM -35.7770 143.8460 149° Southeast 455 524 33,400 -1,560 Descending FlightAware
01:02AM -35.8377 143.8901 149° Southeast 448 516 32,400 -1,560 Descending Aus ATC (RADAR)
01:02AM -35.8410 143.8960 149° Southeast 452 520 32,500 -480 Climbing FlightAware
01:02AM -35.9000 143.9420 148° Southeast 426 490 32,100 -960 Descending FlightAware
01:03AM -35.9600 143.9880 148° Southeast 419 482 31,400 -1,140 Descending FlightAware
01:04AM -36.0160 144.0320 148° Southeast 401 461 30,800 -1,080 Descending FlightAware
01:04AM -36.0710 144.0750 148° Southeast 386 444 30,200 -1,320 Descending FlightAware
01:05AM -36.1210 144.1117 148° Southeast 384 442 29,400 -1,500 Descending Aus ATC (RADAR)
01:05AM -36.1260 144.1170 148° Southeast 380 437 29,300 -1,440 Descending FlightAware
01:05AM -36.1770 144.1570 148° Southeast 379 436 28,500 -1,320 Descending FlightAware
01:06AM -36.2310 144.1990 148° Southeast 370 426 27,800 -1,320 Descending FlightAware
01:06AM -36.2810 144.2380 148° Southeast 363 418 27,000 -1,500 Descending FlightAware
01:07AM -36.3320 144.2770 148° Southeast 365 420 26,100 -1,380 Descending FlightAware
01:08AM -36.3800 144.3150 147° Southeast 358 412 25,400 -1,260 Descending FlightAware
01:08AM -36.4020 144.3340 145° Southeast 354 407 25,100 -1,380 Descending FlightAware
01:08AM -36.4220 144.3680 126° Southeast 373 429 24,600 -1,440 Descending FlightAware
01:08AM -36.4260 144.3860 105° East 380 437 24,400 -1,260 Descending FlightAware
01:09AM -36.4280 144.4300 93° East 379 436 24,000 -1,320 Descending FlightAware
01:09AM -36.4270 144.5070 89° East 374 430 23,200 -1,500 Descending FlightAware
01:10AM -36.4275 144.5844 89° East 366 421 22,300 -1,320 Descending Aus ATC (RADAR)
01:10AM -36.4270 144.5870 89° East 367 422 22,400 -1,320 Climbing FlightAware
01:10AM -36.4340 144.6340 101° East 354 407 21,700 -1,380 Descending FlightAware
01:11AM -36.4670 144.6780 133° Southeast 320 368 21,100 -1,080 Descending FlightAware
01:11AM -36.4810 144.6850 158° South 307 353 21,000 -840 Descending FlightAware
01:11AM -36.5030 144.6880 174° South 293 337 20,800 -1,200 Descending FlightAware
01:12AM -36.5497 144.6894 174° South 305 351 20,100 -1,080 Descending Aus ATC (RADAR)
01:12AM -36.5600 144.6900 174° South 294 338 20,100 -840 Level FlightAware
01:13AM -36.6090 144.6920 178° South 294 338 19,500 -960 Descending FlightAware
01:13AM -36.6560 144.6960 176° South 292 336 19,000 -840 Descending FlightAware
01:14AM -36.6950 144.6990 176° South 290 334 18,600 -1,200 Descending FlightAware
01:14AM -36.7499 144.7025 176° South 297 342 17,700 -1,320 Descending Aus ATC (RADAR)
01:14AM -36.7550 144.7030 176° South 289 333 17,700 -1,140 Level FlightAware
01:15AM -36.8090 144.7070 177° South 293 337 16,900 -1,320 Descending FlightAware
01:16AM -36.8580 144.7100 177° South 288 331 16,100 -1,320 Descending FlightAware
01:16AM -36.9040 144.7140 176° South 294 338 15,400 -1,200 Descending FlightAware
01:17AM -36.9530 144.7170 177° South 294 338 14,700 -1,440 Descending FlightAware
01:17AM -37.0011 144.7200 177° South 288 331 13,800 -1,260 Descending Aus ATC (RADAR)
01:17AM -36.9990 144.7200 177° South 288 331 14,000 -1,200 Climbing FlightAware
01:18AM -37.0471 144.7235 177° South 283 326 13,100 -1,380 Descending Aus ATC (RADAR)
01:18AM -37.0470 144.7240 177° South 276 318 13,200 -1,020 Climbing FlightAware
01:18AM -37.0910 144.7270 177° South 275 316 12,500 -1,200 Descending FlightAware
01:19AM -37.1370 144.7300 177° South 272 313 11,800 -1,080 Descending FlightAware
01:20AM -37.1810 144.7350 175° South 276 318 11,300 -1,140 Descending FlightAware
01:20AM -37.2290 144.7450 171° South 280 322 10,500 -1,440 Descending FlightAware
01:21AM -37.2610 144.7520 170° South 279 321 9,900 -1,380 Descending FlightAware
01:21AM -37.2870 144.7570 171° South 276 318 9,500 -1,380 Descending FlightAware
01:21AM -37.3200 144.7640 170° South 282 325 8,900 -1,380 Descending FlightAware
01:22AM -37.3390 144.7680 170° South 283 326 8,600 -900 Descending FlightAware
01:22AM -37.3710 144.7760 169° South 279 321 8,300 -960 Descending FlightAware
01:22AM -37.3970 144.7820 170° South 276 318 7,900 -1,020 Descending FlightAware
01:23AM -37.4080 144.7850 168° South 277 319 7,800 -1,020 Descending FlightAware
01:23AM -37.4340 144.7910 170° South 279 321 7,400 -1,080 Descending FlightAware
01:23AM -37.4630 144.7990 168° South 278 320 7,000 -960 Descending FlightAware
01:24AM -37.4910 144.8050 170° South 272 313 6,700 -780 Descending FlightAware
01:24AM -37.5150 144.8110 169° South 262 302 6,500 -720 Descending FlightAware
01:24AM -37.5300 144.8140 171° South 259 298 6,300 -1,020 Descending FlightAware
01:24AM -37.5490 144.8240 157° South 263 303 6,000 -1,440 Descending FlightAware
01:25AM -37.5590 144.8390 130° Southeast 276 318 5,600 -1,800 Descending FlightAware
01:25AM -37.5630 144.8500 115° Southeast 280 322 5,400 -1,800 Descending FlightAware
01:25AM -37.5640 144.8560 102° East 281 323 5,300 -1,200 Descending FlightAware
01:25AM -37.5650 144.8710 95° East 280 322 5,100 -1,320 Descending FlightAware
01:25AM -37.5660 144.9020 92° East 274 315 4,700 -1,320 Descending FlightAware
01:26AM -37.5680 144.9330 95° East 270 311 4,300 -1,080 Descending FlightAware
01:26AM -37.5690 144.9570 93° East 263 303 4,100 -720 Descending FlightAware
01:26AM -37.5700 144.9890 92° East 244 281 3,900 -660 Descending FlightAware
01:27AM -37.5720 145.0080 98° East 236 272 3,700 -900 Descending FlightAware
01:27AM -37.5740 145.0150 110° East 229 264 3,600 -1,140 Descending FlightAware
01:27AM -37.5800 145.0260 125° Southeast 211 243 3,400 -960 Descending FlightAware
01:27AM -37.5870 145.0310 150° Southeast 198 228 3,300 -960 Descending FlightAware
01:27AM -37.5920 145.0330 162° South 197 227 3,200 -600 Descending FlightAware
01:27AM -37.5970 145.0330 180° South 191 220 3,200 -1,020 Level FlightAware
01:28AM -37.6200 145.0300 186° South 187 215 2,700 -720 Descending FlightAware
01:28AM -37.6370 145.0290 183° South 182 209 2,700  Level FlightAware
01:28AM -37.6530 145.0280 183° South 167 192 2,700  Level FlightAware
01:28AM -37.6630 145.0250 193° South 158 182 2,700  Level FlightAware
01:29AM -37.6660 145.0220 218° Southwest 155 178 2,700  Level FlightAware
01:29AM -37.6670 145.0180 252° West 153 176 2,700  Level FlightAware
01:29AM -37.6690 145.0090 254° West 153 176 2,700  Level FlightAware
01:29AM -37.6700 144.9960 264° West 148 170 2,700 -180 Level FlightAware
01:29AM -37.6700 144.9790 270° West 147 169 2,600 -480 Descending FlightAware
01:30AM -37.6690 144.9630 275° West 139 160 2,400 -600 Descending FlightAware
01:30AM -37.6680 144.9480 275° West 127 146 2,200 -780 Descending FlightAware
01:30AM -37.6670 144.9320 275° West 126 145 1,900 -780 Descending FlightAware
01:31AM -37.6660 144.9170 275° West 127 146 1,700 -720 Descending FlightAware
01:31AM -37.6660 144.9070 270° West 126 145 1,500 -720 Descending FlightAware
01:32AM -37.6640 144.8790 275° West 128 147 1,100 -720 Descending FlightAware
01:32AM -37.6630 144.8630 275° West 129 148 800 -360 Descending FlightAware
01:32AM -37.6620 144.8450 274° West 129 148 800  Level FlightAware